Time;durP1;ratioP1;P1;durP2;ratioP2;P2;SDS_P1;SDS_P2;PMS_P1;PMS_P2;Temp;Humidity;BMP_temperature;BMP_pressure;BME280_temperature;BME280_humidity;BME280_pressure;Samples;Min_cycle;Max_cycle;Signal;HPM_P1;HPM_P2
2022/01/13 00:00:06;;;;;;;82.82;23.10;;;;;;;3.34;100.00;104076.81;5232998;28;20296;-74
2022/01/13 00:02:37;;;;;;;55.60;20.58;;;;;;;3.23;100.00;104074.25;5249817;28;20033;-74
2022/01/13 00:05:08;;;;;;;60.90;21.33;;;;;;;3.18;100.00;104065.59;5231889;28;20258;-74
2022/01/13 00:07:40;;;;;;;95.25;21.65;;;;;;;3.08;100.00;104059.59;5247410;28;20413;-74
2022/01/13 00:10:11;;;;;;;67.63;22.35;;;;;;;3.12;100.00;104071.69;5248989;28;20025;-74
2022/01/13 00:12:44;;;;;;;60.45;20.73;;;;;;;3.09;100.00;104083.78;5249313;28;20469;-74
2022/01/13 00:15:39;;;;;;;65.10;22.30;;;;;;;3.08;100.00;104088.09;5232819;28;20462;-74
2022/01/13 00:18:14;;;;;;;49.28;19.95;;;;;;;3.16;100.00;104091.53;5247748;28;20485;-74
2022/01/13 00:21:11;;;;;;;52.97;21.35;;;;;;;3.13;100.00;104085.50;5249514;28;20087;-74
2022/01/13 00:26:25;;;;;;;46.75;21.20;;;;;;;3.22;100.00;104082.00;5248032;28;20036;-74
2022/01/13 00:28:59;;;;;;;52.70;21.23;;;;;;;3.20;100.00;104083.75;5249531;28;20020;-74
2022/01/13 00:31:34;;;;;;;61.90;22.00;;;;;;;3.23;100.00;104094.13;5249069;28;20413;-74
2022/01/13 00:34:06;;;;;;;58.53;21.05;;;;;;;3.19;100.00;104093.25;5250080;28;20036;-74
2022/01/13 00:36:39;;;;;;;76.77;21.37;;;;;;;3.15;100.00;104082.03;5248357;28;20557;-74
2022/01/13 00:39:12;;;;;;;47.53;19.27;;;;;;;3.21;100.00;104081.16;5246946;28;20485;-73
2022/01/13 00:41:43;;;;;;;53.75;21.58;;;;;;;3.19;100.00;104093.25;5249349;28;20541;-74
2022/01/13 00:44:19;;;;;;;57.45;22.17;;;;;;;3.21;100.00;104091.53;5248628;28;20070;-74
2022/01/13 00:46:59;;;;;;;63.47;21.73;;;;;;;3.23;100.00;104083.75;5231592;28;20044;-74
2022/01/13 00:49:30;;;;;;;55.28;21.30;;;;;;;3.22;100.00;104082.00;5248141;28;20418;-74
2022/01/13 00:52:04;;;;;;;41.03;19.98;;;;;;;3.24;100.00;104080.28;5249251;28;20045;-74
2022/01/13 00:54:35;;;;;;;37.40;18.58;;;;;;;3.13;100.00;104073.41;5249913;28;20108;-74
2022/01/13 00:57:07;;;;;;;43.92;19.00;;;;;;;3.14;100.00;104071.66;5231519;28;20024;-74
2022/01/13 00:59:39;;;;;;;42.30;18.75;;;;;;;3.16;100.00;104077.72;5249419;28;20029;-74
2022/01/13 01:02:10;;;;;;;43.20;19.27;;;;;;;3.13;100.00;104070.81;5252936;28;20041;-74
2022/01/13 01:04:41;;;;;;;74.32;21.35;;;;;;;3.07;100.00;104070.84;5253270;28;20035;-74
2022/01/13 01:07:13;;;;;;;42.60;18.52;;;;;;;3.09;100.00;104060.47;5253060;28;20063;-74
2022/01/13 01:09:49;;;;;;;81.50;21.10;;;;;;;3.04;100.00;104075.16;5251959;28;20029;-73
2022/01/13 01:12:21;;;;;;;49.30;17.63;;;;;;;3.05;100.00;104066.50;5251728;28;20044;-73
2022/01/13 01:14:56;;;;;;;36.67;18.38;;;;;;;3.12;100.00;104073.41;5251943;28;20170;-74
2022/01/13 01:17:28;;;;;;;70.85;19.23;;;;;;;3.03;100.00;104065.63;5253207;28;20086;-74
2022/01/13 01:20:06;;;;;;;45.10;17.92;;;;;;;3.02;100.00;104059.59;5252531;28;20025;-73
2022/01/13 01:23:10;;;;;;;42.90;18.55;;;;;;;3.03;100.00;104065.63;5253295;28;20604;-74
2022/01/13 01:28:01;;;;;;;41.17;18.58;;;;;;;2.97;100.00;104071.69;5252738;28;20032;-74
2022/01/13 01:30:44;;;;;;;48.03;17.83;;;;;;;2.85;100.00;104063.94;5252934;28;20029;-74
2022/01/13 01:33:18;;;;;;;48.83;18.98;;;;;;;2.92;100.00;104076.03;5252961;28;20115;-74
2022/01/13 01:35:49;;;;;;;56.38;16.42;;;;;;;2.89;100.00;104084.66;5250540;28;20056;-73
2022/01/13 01:38:22;;;;;;;48.97;16.83;;;;;;;2.83;100.00;104073.44;5252657;28;20123;-74
2022/01/13 01:40:53;;;;;;;46.17;16.75;;;;;;;2.86;100.00;104091.56;5235492;28;20025;-74
2022/01/13 01:43:25;;;;;;;73.40;17.00;;;;;;;2.75;100.00;104082.94;5250848;28;20401;-74
2022/01/13 01:45:59;;;;;;;53.70;17.00;;;;;;;2.75;100.00;104082.94;5251691;28;20060;-74
2022/01/13 01:48:34;;;;;;;35.92;16.80;;;;;;;2.75;100.00;104078.63;5252466;28;20267;-74
2022/01/13 01:51:07;;;;;;;59.00;18.08;;;;;;;2.71;100.00;104058.78;5251748;28;20064;-74
2022/01/13 01:53:38;;;;;;;51.78;16.40;;;;;;;2.76;100.00;104069.97;5251693;28;20622;-74
2022/01/13 01:56:10;;;;;;;50.08;17.50;;;;;;;2.73;100.00;104053.56;5251463;28;20116;-73
2022/01/13 01:58:41;;;;;;;41.65;16.13;;;;;;;2.72;100.00;104054.44;5252488;28;20429;-73
2022/01/13 02:01:13;;;;;;;45.92;16.55;;;;;;;2.75;100.00;104049.28;5251391;28;20075;-73
2022/01/13 02:03:44;;;;;;;33.10;15.23;;;;;;;2.79;100.00;104046.69;5251435;28;20036;-73
2022/01/13 02:06:16;;;;;;;56.58;16.35;;;;;;;2.86;100.00;104052.72;5252028;28;20029;-73
2022/01/13 02:08:48;;;;;;;43.75;15.68;;;;;;;2.87;100.00;104049.25;5251999;28;20125;-73
2022/01/13 02:11:20;;;;;;;55.45;15.98;;;;;;;2.83;100.00;104053.56;5251338;28;20021;-73
2022/01/13 02:13:54;;;;;;;69.70;17.35;;;;;;;2.72;100.00;104037.19;5249813;28;20114;-74
2022/01/13 02:16:50;;;;;;;56.80;14.65;;;;;;;2.77;100.00;104057.91;5250947;28;20040;-73
2022/01/13 02:19:17;;;;;;;54.03;14.70;;;;;;;2.80;100.00;104063.06;5251948;28;20037;-73
2022/01/13 02:21:49;;;;;;;79.43;15.13;;;;;;;2.75;100.00;104065.66;5251068;28;20078;-74
2022/01/13 02:24:20;;;;;;;46.92;14.20;;;;;;;2.76;100.00;104072.56;5249970;28;20030;-73
2022/01/13 02:26:51;;;;;;;85.47;15.68;;;;;;;2.73;100.00;104074.28;5251872;28;20013;-74
2022/01/13 02:29:23;;;;;;;55.80;14.55;;;;;;;2.67;100.00;104063.09;5253526;28;20396;-74
2022/01/13 02:31:54;;;;;;;39.72;14.60;;;;;;;2.78;100.00;104075.16;5249874;28;20021;-74
2022/01/13 02:34:26;;;;;;;54.55;14.63;;;;;;;2.82;100.00;104075.16;5252631;28;20435;-73
2022/01/13 02:36:58;;;;;;;37.83;13.60;;;;;;;2.83;100.00;104066.53;5251638;28;20024;-73
2022/01/13 02:39:29;;;;;;;55.35;15.05;;;;;;;2.86;100.00;104055.31;5249964;28;20474;-73
2022/01/13 02:42:03;;;;;;;40.25;15.80;;;;;;;2.89;100.00;104065.69;5249362;28;20185;-74
2022/01/13 02:44:38;;;;;;;33.53;15.32;;;;;;;2.90;100.00;104059.63;5250146;28;20028;-74
2022/01/13 02:47:21;;;;;;;29.23;14.90;;;;;;;2.93;100.00;104060.47;5251973;28;20021;-73
2022/01/13 02:49:52;;;;;;;65.95;17.13;;;;;;;2.93;100.00;104057.91;5249160;28;20032;-73
2022/01/13 02:52:24;;;;;;;39.90;15.88;;;;;;;2.86;100.00;104056.16;5251676;28;20027;-74
2022/01/13 02:54:55;;;;;;;69.50;15.93;;;;;;;2.89;100.00;104063.09;5251402;28;20071;-74
2022/01/13 02:57:28;;;;;;;57.08;15.98;;;;;;;2.89;100.00;104069.13;5250708;28;20029;-73
2022/01/13 02:59:59;;;;;;;56.50;16.17;;;;;;;2.79;100.00;104059.63;5250649;28;20048;-73
2022/01/13 03:02:31;;;;;;;48.75;15.43;;;;;;;2.87;100.00;104069.97;5249611;28;20147;-73
2022/01/13 03:05:03;;;;;;;44.85;15.20;;;;;;;2.87;100.00;104070.84;5248977;28;20036;-74
2022/01/13 03:07:34;;;;;;;70.63;16.80;;;;;;;2.81;100.00;104063.09;5249340;28;20099;-74
2022/01/13 03:10:07;;;;;;;80.47;18.35;;;;;;;2.75;100.00;104057.91;5250671;28;20166;-73
2022/01/13 03:12:42;;;;;;;;;;;;;;;3.29;100.00;104066.44;5249677;28;20805;-74
2022/01/13 03:15:13;;;;;;;51.75;16.85;;;;;;;2.86;100.00;104060.50;5248762;28;20373;-74
2022/01/13 03:17:45;;;;;;;50.92;17.02;;;;;;;2.81;100.00;104050.16;5246160;28;20037;-74
2022/01/13 03:20:16;;;;;;;57.55;17.85;;;;;;;2.78;100.00;104046.69;5233922;28;20022;-73
2022/01/13 03:22:47;;;;;;;40.85;17.38;;;;;;;2.85;100.00;104046.69;5250482;28;20021;-73
2022/01/13 03:25:23;;;;;;;54.30;19.75;;;;;;;2.79;100.00;104049.25;5248768;28;20118;-73
2022/01/13 03:28:39;;;;;;;48.45;18.05;;;;;;;2.78;100.00;104044.09;5248341;28;20103;-73
2022/01/13 03:30:49;;;;;;;53.28;18.73;;;;;;;2.75;100.00;104033.75;5239514;28;20032;-73
2022/01/13 03:33:20;;;;;;;51.20;19.63;;;;;;;2.84;100.00;104051.84;5249189;28;20029;-74
2022/01/13 03:35:52;;;;;;;61.05;19.88;;;;;;;2.82;100.00;104051.00;5249036;28;20025;-73
2022/01/13 03:38:24;;;;;;;57.25;20.95;;;;;;;2.77;100.00;104043.25;5248700;28;20025;-73
2022/01/13 03:40:56;;;;;;;70.43;21.77;;;;;;;2.85;100.00;104046.69;5250202;28;20533;-73
2022/01/13 03:43:27;;;;;;;62.03;20.58;;;;;;;2.82;100.00;104040.66;5249710;28;20032;-73
2022/01/13 03:45:58;;;;;;;69.47;21.80;;;;;;;2.81;100.00;104039.78;5247122;28;20116;-73
2022/01/13 03:48:30;;;;;;;68.65;21.23;;;;;;;2.73;100.00;104038.94;5232685;28;20017;-74
2022/01/13 03:51:01;;;;;;;76.82;21.90;;;;;;;2.75;100.00;104044.97;5250146;28;20053;-74
2022/01/13 03:53:38;;;;;;;81.18;22.35;;;;;;;2.83;100.00;104039.78;5249084;28;20040;-74
2022/01/13 03:56:43;;;;;;;56.38;22.13;;;;;;;2.94;100.00;104038.03;5249673;28;20033;-73
2022/01/13 03:59:34;;;;;;;55.00;21.13;;;;;;;2.83;100.00;104044.94;5249732;28;20247;-73
2022/01/13 04:02:07;;;;;;;81.25;22.30;;;;;;;2.79;100.00;104038.06;5250230;28;20032;-73
2022/01/13 04:04:47;;;;;;;79.40;21.15;;;;;;;2.76;100.00;104031.13;5248880;28;20089;-73
2022/01/13 04:07:21;;;;;;;56.50;22.08;;;;;;;2.76;100.00;104033.72;5248421;28;20723;-73
2022/01/13 04:09:55;;;;;;;67.45;23.25;;;;;;;2.76;100.00;104033.72;5250157;28;20043;-74
2022/01/13 04:12:27;;;;;;;58.70;22.20;;;;;;;2.67;100.00;104032.00;5249285;28;20033;-73
2022/01/13 04:15:01;;;;;;;49.25;22.00;;;;;;;2.74;100.00;104038.06;5249322;28;20032;-73
2022/01/13 04:17:32;;;;;;;46.63;21.17;;;;;;;2.76;100.00;104033.72;5249626;28;20382;-73
2022/01/13 04:20:04;;;;;;;59.70;23.23;;;;;;;2.75;100.00;104031.16;5248539;28;20020;-74
2022/01/13 04:22:35;;;;;;;46.40;21.95;;;;;;;2.80;100.00;104034.59;5249312;28;20029;-73
2022/01/13 04:25:07;;;;;;;76.00;22.52;;;;;;;2.77;100.00;104043.25;5246955;28;20120;-73
2022/01/13 04:27:43;;;;;;;71.53;22.33;;;;;;;2.72;100.00;104037.19;5247978;28;20063;-73
2022/01/13 04:32:46;;;;;;;61.50;21.92;;;;;;;2.71;100.00;104032.88;5248948;28;20036;-73
2022/01/13 04:35:17;;;;;;;54.92;23.00;;;;;;;2.76;100.00;104040.63;5248676;28;20033;-73
2022/01/13 04:37:48;;;;;;;62.47;23.05;;;;;;;2.76;100.00;104031.13;5248200;28;20029;-73
2022/01/13 04:40:20;;;;;;;60.53;23.08;;;;;;;2.72;100.00;104024.25;5231742;28;20525;-73
2022/01/13 04:42:54;;;;;;;87.53;23.38;;;;;;;2.70;100.00;104009.59;5249598;28;20641;-73
2022/01/13 04:45:26;;;;;;;57.40;22.85;;;;;;;2.79;100.00;104020.78;5248523;28;20056;-73
2022/01/13 04:47:57;;;;;;;70.53;23.95;;;;;;;2.77;100.00;104022.53;5248588;28;20120;-73
2022/01/13 04:50:29;;;;;;;58.00;22.02;;;;;;;2.79;100.00;104019.94;5267649;23;20479;-74
2022/01/13 04:53:00;;;;;;;76.95;22.15;;;;;;;2.80;100.00;104021.66;5243436;28;20025;-74
2022/01/13 04:55:34;;;;;;;96.50;24.80;;;;;;;2.78;100.00;104023.38;5247050;28;20037;-73
2022/01/13 04:58:06;;;;;;;128.20;27.77;;;;;;;2.67;100.00;104018.22;5232401;28;20594;-73
2022/01/13 05:00:38;;;;;;;90.25;24.27;;;;;;;2.70;100.00;104017.38;5249704;28;20357;-73
2022/01/13 05:03:09;;;;;;;105.43;25.13;;;;;;;2.64;100.00;104007.84;5249466;28;20614;-72
2022/01/13 05:05:40;;;;;;;119.22;26.15;;;;;;;2.62;100.00;104018.22;5248781;28;20110;-72
2022/01/13 05:08:12;;;;;;;116.50;25.05;;;;;;;2.63;100.00;104019.94;5250449;28;20439;-72
2022/01/13 05:10:43;;;;;;;102.80;25.52;;;;;;;2.58;100.00;104020.81;5251540;28;20025;-72
2022/01/13 05:13:15;;;;;;;91.03;22.83;;;;;;;2.58;100.00;104023.41;5251812;28;20036;-72
2022/01/13 05:15:48;;;;;;;97.30;23.90;;;;;;;2.55;100.00;104021.69;5249055;28;20095;-73
2022/01/13 05:18:27;;;;;;;92.07;23.83;;;;;;;2.55;100.00;104026.00;5232658;28;20066;-73
2022/01/13 05:21:04;;;;;;;61.08;23.90;;;;;;;2.52;100.00;104006.16;5250671;28;20383;-73
2022/01/13 05:23:35;;;;;;;65.82;22.45;;;;;;;2.57;100.00;104029.44;5251838;28;20048;-73
2022/01/13 05:26:07;;;;;;;68.10;22.95;;;;;;;2.62;100.00;104028.59;5251066;28;20055;-73
2022/01/13 05:28:40;;;;;;;64.88;22.23;;;;;;;2.64;100.00;104031.16;5250289;28;20544;-73
2022/01/13 05:31:12;;;;;;;70.75;25.27;;;;;;;2.64;100.00;104031.16;5250118;28;20090;-73
2022/01/13 05:33:43;;;;;;;71.10;24.67;;;;;;;2.68;100.00;104025.09;5251080;28;20456;-73
2022/01/13 05:36:14;;;;;;;61.83;22.70;;;;;;;2.73;100.00;104030.28;5250505;28;20361;-73
2022/01/13 05:38:45;;;;;;;74.78;23.65;;;;;;;2.71;100.00;104024.25;5249486;28;20029;-73
2022/01/13 05:41:17;;;;;;;131.63;26.95;;;;;;;2.67;100.00;104032.00;5250648;28;20025;-73
2022/01/13 05:43:48;;;;;;;95.03;25.90;;;;;;;2.66;100.00;104026.84;5232526;28;20029;-73
2022/01/13 05:46:19;;;;;;;89.28;25.27;;;;;;;2.63;100.00;104024.25;5250393;28;20044;-73
2022/01/13 05:48:51;;;;;;;89.93;26.73;;;;;;;2.65;100.00;104020.81;5254417;28;20032;-73
2022/01/13 05:51:23;;;;;;;67.32;24.25;;;;;;;2.70;100.00;104032.91;5236110;28;20045;-72
2022/01/13 05:53:54;;;;;;;63.92;24.00;;;;;;;2.72;100.00;104024.25;5236487;28;20120;-72
2022/01/13 05:56:25;;;;;;;80.72;24.83;;;;;;;2.71;100.00;104021.66;5253242;28;20466;-72
2022/01/13 05:58:57;;;;;;;117.72;28.13;;;;;;;2.66;100.00;104027.72;5254979;28;20521;-72
2022/01/13 06:01:28;;;;;;;89.38;25.95;;;;;;;2.65;100.00;104028.59;5254324;28;20127;-73
2022/01/13 06:03:59;;;;;;;100.78;25.73;;;;;;;2.64;100.00;104025.97;5253282;28;20432;-73
2022/01/13 06:06:30;;;;;;;73.00;26.20;;;;;;;2.70;100.00;104022.53;5253499;28;20070;-73
2022/01/13 06:09:02;;;;;;;80.72;26.63;;;;;;;2.71;100.00;104021.66;5254298;28;20020;-73
2022/01/13 06:11:37;;;;;;;97.68;25.52;;;;;;;2.61;100.00;104010.44;5254347;28;20021;-73
2022/01/13 06:14:08;;;;;;;146.88;29.95;;;;;;;2.63;100.00;104019.94;5252625;28;20106;-73
2022/01/13 06:16:40;;;;;;;93.78;27.90;;;;;;;2.68;100.00;104022.53;5254063;28;20092;-73
2022/01/13 06:19:11;;;;;;;106.05;26.48;;;;;;;2.64;100.00;104015.63;5253860;28;20170;-73
2022/01/13 06:21:42;;;;;;;97.03;26.23;;;;;;;2.64;100.00;104013.91;5235488;28;20024;-74
2022/01/13 06:24:13;;;;;;;87.72;24.83;;;;;;;2.59;100.00;104002.69;5254222;28;20470;-73
2022/01/13 06:26:45;;;;;;;103.05;26.38;;;;;;;2.62;100.00;104007.88;5254077;28;20566;-72
2022/01/13 06:29:16;;;;;;;82.82;24.00;;;;;;;2.66;100.00;104014.78;5253755;28;20082;-72
2022/01/13 06:31:47;;;;;;;81.40;23.85;;;;;;;2.68;100.00;104012.16;5253525;28;20482;-73
2022/01/13 06:34:18;;;;;;;91.78;25.30;;;;;;;2.68;100.00;104005.25;5253562;28;20028;-73
2022/01/13 06:36:50;;;;;;;105.68;25.33;;;;;;;2.68;100.00;104001.81;5253148;28;20406;-73
2022/01/13 06:39:21;;;;;;;107.30;24.60;;;;;;;2.67;100.00;104013.03;5253151;28;20478;-74
2022/01/13 06:41:53;;;;;;;101.38;25.63;;;;;;;2.67;100.00;104005.28;5253082;28;20033;-73
2022/01/13 06:44:24;;;;;;;102.80;24.65;;;;;;;2.67;100.00;104005.28;5253452;28;20029;-73
2022/01/13 06:46:55;;;;;;;108.88;23.98;;;;;;;2.66;100.00;104006.16;5252563;28;20017;-73
2022/01/13 06:49:26;;;;;;;111.65;24.05;;;;;;;2.68;100.00;104018.19;5234990;28;20070;-72
2022/01/13 06:51:58;;;;;;;87.30;23.70;;;;;;;2.73;100.00;104014.75;5252856;28;20076;-73
2022/01/13 06:54:30;;;;;;;118.18;24.92;;;;;;;2.72;100.00;104013.03;5253031;28;20025;-73
2022/01/13 06:57:01;;;;;;;105.55;24.80;;;;;;;2.72;100.00;103998.34;5252836;28;20017;-73
2022/01/13 06:59:33;;;;;;;78.72;22.95;;;;;;;2.78;100.00;104015.63;5253134;28;20033;-73
2022/01/13 07:02:04;;;;;;;106.95;21.25;;;;;;;2.75;100.00;104010.44;5253118;28;20048;-73
2022/01/13 07:04:35;;;;;;;122.75;25.33;;;;;;;2.80;100.00;104013.88;5252701;28;20057;-73
2022/01/13 07:07:07;;;;;;;98.97;22.67;;;;;;;2.82;100.00;104018.19;5252502;28;20032;-74
2022/01/13 07:09:38;;;;;;;108.65;25.48;;;;;;;2.83;100.00;104009.56;5253094;28;20083;-74
2022/01/13 07:12:10;;;;;;;117.18;24.60;;;;;;;2.76;100.00;103994.91;5251293;28;20401;-72
2022/01/13 07:14:41;;;;;;;94.82;24.63;;;;;;;2.76;100.00;104006.97;5251550;28;20035;-74
2022/01/13 07:17:12;;;;;;;162.10;28.77;;;;;;;2.78;100.00;104011.31;5252527;28;20056;-73
2022/01/13 07:19:47;;;;;;;103.80;25.10;;;;;;;2.84;100.00;103997.47;5252771;28;20159;-73
2022/01/13 07:22:19;;;;;;;132.57;26.63;;;;;;;2.76;100.00;104004.41;5251965;28;20106;-73
2022/01/13 07:24:51;;;;;;;118.50;23.15;;;;;;;2.77;100.00;104011.31;5252786;28;20389;-74
2022/01/13 07:27:22;;;;;;;73.75;22.42;;;;;;;2.75;100.00;104015.63;5247784;28;20055;-74
2022/01/13 07:29:53;;;;;;;56.78;21.48;;;;;;;2.79;100.00;104004.41;5247138;28;20037;-74
2022/01/13 07:32:25;;;;;;;76.22;22.42;;;;;;;2.84;100.00;104011.31;5247748;28;20726;-74
2022/01/13 07:34:56;;;;;;;90.20;22.95;;;;;;;2.89;100.00;104016.47;5250997;28;20033;-74
2022/01/13 07:37:28;;;;;;;81.75;21.15;;;;;;;2.87;100.00;104013.00;5250151;28;20354;-75
2022/01/13 07:39:59;;;;;;;84.85;22.23;;;;;;;2.86;100.00;104006.97;5250622;28;20037;-74
2022/01/13 07:42:30;;;;;;;81.10;21.63;;;;;;;2.89;100.00;104013.88;5250761;28;20052;-74
2022/01/13 07:45:03;;;;;;;105.40;21.33;;;;;;;2.84;100.00;104013.00;5252320;28;20159;-73
2022/01/13 07:47:34;;;;;;;67.47;19.57;;;;;;;2.93;100.00;104013.00;5250586;28;20031;-74
2022/01/13 07:50:07;;;;;;;101.97;21.73;;;;;;;2.93;100.00;104020.78;5245381;28;20287;-74
2022/01/13 07:52:39;;;;;;;;;;;;;;;3.40;100.00;104012.84;5252324;28;20021;-74
2022/01/13 07:55:11;;;;;;;111.50;21.23;;;;;;;2.94;100.00;104019.91;5251957;28;19912;-74
2022/01/13 07:57:42;;;;;;;105.28;22.02;;;;;;;2.92;100.00;104024.25;5251260;28;20020;-74
2022/01/13 08:00:14;;;;;;;86.85;22.40;;;;;;;2.89;100.00;104011.28;5249446;28;20541;-74
2022/01/13 08:02:46;;;;;;;86.25;21.52;;;;;;;2.83;100.00;104006.97;5231376;28;20040;-74
2022/01/13 08:05:17;;;;;;;90.45;22.77;;;;;;;2.95;100.00;104023.34;5249955;28;20410;-74
2022/01/13 08:07:49;;;;;;;83.63;22.33;;;;;;;2.94;100.00;104014.72;5248566;28;20029;-74
2022/01/13 08:10:20;;;;;;;73.88;22.20;;;;;;;2.99;100.00;104020.75;5247403;28;20793;-75
2022/01/13 08:12:51;;;;;;;91.05;20.80;;;;;;;3.04;100.00;104026.81;5247873;28;20173;-74
2022/01/13 08:15:23;;;;;;;48.00;19.88;;;;;;;3.03;100.00;104019.00;5249931;28;20036;-73
2022/01/13 08:20:44;;;;;;;93.22;21.10;;;;;;;2.99;100.00;104038.88;5250926;28;20092;-75
2022/01/13 08:23:16;;;;;;;55.25;20.75;;;;;;;3.02;100.00;104038.88;5250067;28;20325;-75
2022/01/13 08:25:47;;;;;;;79.25;21.77;;;;;;;3.05;100.00;104031.09;5248952;28;20021;-74
2022/01/13 08:28:19;;;;;;;67.45;20.95;;;;;;;3.02;100.00;104036.28;5249430;28;20403;-73
2022/01/13 08:30:50;;;;;;;122.80;23.33;;;;;;;3.02;100.00;104035.44;5250832;28;20051;-73
2022/01/13 08:33:22;;;;;;;78.13;21.02;;;;;;;3.02;100.00;104038.03;5249404;28;20086;-74
2022/01/13 08:35:54;;;;;;;97.90;21.75;;;;;;;3.08;100.00;104054.41;5250884;28;20551;-74
2022/01/13 08:38:25;;;;;;;55.55;19.70;;;;;;;3.02;100.00;104032.84;5249705;28;20088;-74
2022/01/13 08:40:59;;;;;;;76.20;22.88;;;;;;;3.08;100.00;104041.47;5250420;28;20024;-74
2022/01/13 08:43:31;;;;;;;96.03;23.15;;;;;;;3.04;100.00;104044.94;5250663;28;20025;-74
2022/01/13 08:46:06;;;;;;;128.25;24.02;;;;;;;3.11;100.00;104048.38;5249438;28;20451;-73
2022/01/13 08:48:37;;;;;;;53.58;20.63;;;;;;;3.08;100.00;104041.47;5248247;28;20025;-74
2022/01/13 08:51:08;;;;;;;87.65;21.60;;;;;;;3.12;100.00;104055.28;5250131;28;20498;-74
2022/01/13 08:53:40;;;;;;;76.75;21.08;;;;;;;3.09;100.00;104045.78;5251318;28;20059;-74
2022/01/13 08:56:12;;;;;;;81.35;20.10;;;;;;;3.17;100.00;104056.97;5249123;28;20029;-74
2022/01/13 08:58:45;;;;;;;91.80;22.00;;;;;;;3.16;100.00;104051.81;5231136;28;20425;-74
2022/01/13 09:01:16;;;;;;;100.95;22.35;;;;;;;3.12;100.00;104056.13;5250196;28;20035;-75
2022/01/13 09:03:47;;;;;;;85.28;22.35;;;;;;;3.16;100.00;104062.19;5249935;28;20522;-74
2022/01/13 09:06:19;;;;;;;52.42;19.27;;;;;;;3.19;100.00;104056.13;5249648;28;20040;-73
2022/01/13 09:08:50;;;;;;;66.57;20.45;;;;;;;3.29;100.00;104063.00;5250570;28;20029;-73
2022/01/13 09:11:21;;;;;;;51.28;20.10;;;;;;;3.33;100.00;104069.91;5249941;28;20021;-74
2022/01/13 09:13:57;;;;;;;60.45;21.33;;;;;;;3.30;100.00;104064.75;5229960;28;20082;-75
2022/01/13 09:16:33;;;;;;;78.75;20.35;;;;;;;3.32;100.00;104069.03;5247805;28;20025;-73
2022/01/13 09:19:11;;;;;;;51.55;19.58;;;;;;;3.35;100.00;104078.53;5228856;28;20029;-74
2022/01/13 09:21:45;;;;;;;76.72;21.13;;;;;;;3.38;100.00;104079.41;5233026;28;20028;-75
2022/01/13 09:24:18;;;;;;;76.32;21.25;;;;;;;3.33;100.00;104075.97;5254076;28;20021;-75
2022/01/13 09:26:50;;;;;;;76.32;20.50;;;;;;;3.33;100.00;104072.50;5254093;28;20626;-73
2022/01/13 09:29:21;;;;;;;67.60;20.50;;;;;;;3.36;100.00;104075.94;5252028;28;20222;-73
2022/01/13 09:31:52;;;;;;;82.13;20.20;;;;;;;3.35;100.00;104073.38;5253990;28;21010;-73
2022/01/13 09:34:24;;;;;;;92.32;21.65;;;;;;;3.39;100.00;104077.66;5254690;28;20337;-73
2022/01/13 09:36:55;;;;;;;87.18;21.40;;;;;;;3.34;100.00;104076.81;5235355;28;20069;-74
2022/01/13 09:39:27;;;;;;;90.90;20.08;;;;;;;3.33;100.00;104080.25;5254156;28;20044;-74
2022/01/13 09:41:59;;;;;;;81.40;21.38;;;;;;;3.37;100.00;104081.97;5254022;28;20048;-73
2022/01/13 09:44:30;;;;;;;76.75;22.40;;;;;;;3.42;100.00;104081.13;5249711;28;20025;-75
2022/01/13 09:47:04;;;;;;;86.82;21.75;;;;;;;3.37;100.00;104066.44;5234704;28;20025;-74
2022/01/13 09:49:35;;;;;;;78.70;21.80;;;;;;;3.40;100.00;104075.06;5252336;28;20548;-74
2022/01/13 09:52:07;;;;;;;114.07;23.73;;;;;;;3.35;100.00;104074.22;5252490;28;20163;-74
2022/01/13 09:54:38;;;;;;;103.78;22.13;;;;;;;3.34;100.00;104074.25;5252154;28;20037;-74
2022/01/13 09:57:10;;;;;;;71.28;21.65;;;;;;;3.40;100.00;104074.19;5253160;28;20029;-74
2022/01/13 09:59:42;;;;;;;87.78;21.40;;;;;;;3.41;100.00;104084.59;5252895;28;20112;-73
2022/01/13 10:02:13;;;;;;;85.65;21.73;;;;;;;3.41;100.00;104073.34;5251939;28;20035;-74
2022/01/13 10:04:51;;;;;;;83.32;20.92;;;;;;;3.52;100.00;104076.75;5252628;28;20036;-74
2022/01/13 10:07:32;;;;;;;81.65;21.60;;;;;;;3.60;100.00;104077.59;5252619;28;20044;-73
2022/01/13 10:10:07;;;;;;;80.03;21.40;;;;;;;3.53;100.00;104073.31;5252401;28;20549;-74
2022/01/13 10:12:41;;;;;;;104.35;22.20;;;;;;;3.44;100.00;104070.72;5253566;28;20024;-74
2022/01/13 10:18:11;;;;;;;70.82;20.25;;;;;;;3.49;100.00;104071.59;5252720;28;20108;-74
2022/01/13 10:20:43;;;;;;;61.22;21.13;;;;;;;3.58;100.00;104084.50;5252930;28;20494;-73
2022/01/13 10:23:14;;;;;;;111.13;23.55;;;;;;;3.58;100.00;104068.97;5251694;28;20458;-74
2022/01/13 10:25:45;;;;;;;78.18;22.15;;;;;;;3.64;100.00;104070.69;5234415;28;20020;-74
2022/01/13 10:28:20;;;;;;;60.78;20.48;;;;;;;3.66;100.00;104069.78;5253077;28;20281;-73
2022/01/13 10:30:53;;;;;;;58.03;20.48;;;;;;;3.66;100.00;104066.34;5252691;28;20071;-74
2022/01/13 10:33:27;;;;;;;59.67;21.67;;;;;;;3.73;100.00;104080.16;5233830;28;20028;-73
2022/01/13 10:36:11;;;;;;;74.75;21.08;;;;;;;3.84;100.00;104076.63;5252050;28;20037;-74
2022/01/13 10:38:57;;;;;;;103.32;21.63;;;;;;;3.85;100.00;104078.34;5234056;28;20033;-74
2022/01/13 10:41:38;;;;;;;61.88;20.30;;;;;;;3.74;100.00;104081.88;5252593;28;20118;-74
2022/01/13 10:44:15;;;;;;;71.78;20.60;;;;;;;3.78;100.00;104073.19;5248268;28;20118;-73
2022/01/13 10:47:03;;;;;;;83.00;21.35;;;;;;;3.74;100.00;104059.38;5250258;28;20032;-74
2022/01/13 10:49:38;;;;;;;78.88;20.15;;;;;;;3.64;100.00;104066.34;5253095;28;20237;-74
2022/01/13 10:52:16;;;;;;;69.70;19.73;;;;;;;3.79;100.00;104077.50;5245449;23;20076;-74
2022/01/13 10:54:48;;;;;;;75.57;20.70;;;;;;;3.67;100.00;104075.81;5203736;28;20050;-74
2022/01/13 10:57:24;;;;;;;57.70;20.23;;;;;;;3.78;100.00;104068.88;5210808;28;20125;-74
2022/01/13 10:59:56;;;;;;;79.88;20.13;;;;;;;3.74;100.00;104066.31;5211393;28;20030;-74
2022/01/13 11:02:27;;;;;;;69.88;20.45;;;;;;;3.75;100.00;104057.66;5210003;28;20037;-74
2022/01/13 11:05:02;;;;;;;66.53;18.30;;;;;;;3.81;100.00;104055.03;5211698;28;20030;-74
2022/01/13 11:07:34;;;;;;;81.22;20.20;;;;;;;3.77;100.00;104053.34;5209911;28;20386;-74
2022/01/13 11:10:07;;;;;;;67.65;18.88;;;;;;;3.75;100.00;104047.28;5210109;28;20387;-74
2022/01/13 11:12:42;;;;;;;54.07;18.37;;;;;;;3.81;100.00;104050.72;5211086;28;20022;-74
2022/01/13 11:15:17;;;;;;;57.55;18.85;;;;;;;3.76;100.00;104047.28;5210484;28;20030;-74
2022/01/13 11:17:49;;;;;;;68.72;19.73;;;;;;;3.71;100.00;104037.78;5210503;28;20467;-74
2022/01/13 11:20:22;;;;;;;56.08;19.85;;;;;;;3.81;100.00;104042.94;5209880;28;20119;-74
2022/01/13 11:22:58;;;;;;;53.28;19.05;;;;;;;3.89;100.00;104040.28;5209060;28;20034;-74
2022/01/13 11:25:29;;;;;;;66.03;19.35;;;;;;;3.81;100.00;104029.97;5209753;28;20034;-74
2022/01/13 11:28:01;;;;;;;61.97;20.13;;;;;;;3.82;100.00;104031.66;5210711;28;20022;-74
2022/01/13 11:30:32;;;;;;;59.60;18.88;;;;;;;3.86;100.00;104023.03;5210041;28;20029;-74
2022/01/13 11:33:04;;;;;;;67.43;18.20;;;;;;;3.86;100.00;104027.34;5209730;28;20033;-74
2022/01/13 11:35:39;;;;;;;68.88;20.50;;;;;;;3.89;100.00;104029.91;5210296;28;20088;-74
2022/01/13 11:38:11;;;;;;;64.63;19.20;;;;;;;3.81;100.00;104022.19;5209320;28;20426;-74
2022/01/13 11:40:46;;;;;;;54.25;18.42;;;;;;;3.94;100.00;104010.03;5199941;28;20144;-74
2022/01/13 11:43:34;;;;;;;63.08;21.05;;;;;;;4.03;100.00;104015.13;5209419;28;20064;-74
2022/01/13 11:46:21;;;;;;;65.38;19.42;;;;;;;4.01;100.00;104024.66;5209455;28;20490;-74
2022/01/13 11:49:09;;;;;;;70.97;19.83;;;;;;;4.03;100.00;104027.25;5207859;28;20029;-74